createdAt,value
2022-08-16T00:02:27.780Z,100467.88
2022-08-16T00:05:57.605Z,100468.50
2022-08-16T00:09:20.918Z,100470.59
2022-08-16T00:12:42.950Z,100471.00
2022-08-16T00:17:06.163Z,100483.28
2022-08-16T00:19:49.082Z,100473.28
2022-08-16T00:23:16.102Z,100474.72
2022-08-16T00:26:44.514Z,100482.88
2022-08-16T00:30:25.954Z,100493.25
2022-08-16T00:33:50.634Z,100484.06
2022-08-16T00:37:12.871Z,100492.16
2022-08-16T00:40:50.813Z,100493.78
2022-08-16T00:44:18.901Z,100501.69
2022-08-16T00:47:48.947Z,100505.44
2022-08-16T00:51:12.616Z,100503.13
2022-08-16T00:54:38.534Z,100503.75
2022-08-16T00:58:04.419Z,100501.25
2022-08-16T01:01:36.411Z,100512.66
2022-08-16T01:05:09.643Z,100510.75
2022-08-16T01:08:36.326Z,100514.28
2022-08-16T01:11:58.635Z,100523.63
2022-08-16T01:15:21.971Z,100534.44
2022-08-16T01:18:51.250Z,100547.94
2022-08-16T01:22:48.140Z,100550.44
2022-08-16T01:26:33.698Z,100555.19
2022-08-16T01:29:58.113Z,100551.00
2022-08-16T01:33:22.622Z,100555.59
2022-08-16T01:36:47.774Z,100558.66
2022-08-16T01:40:23.853Z,100553.00
2022-08-16T01:43:53.875Z,100557.56
2022-08-16T01:47:17.805Z,100563.34
2022-08-16T01:51:08.229Z,100551.25
2022-08-16T01:54:31.077Z,100556.66
2022-08-16T01:57:56.432Z,100553.31
2022-08-16T02:01:20.587Z,100551.63
2022-08-16T02:04:49.011Z,100553.69
2022-08-16T02:08:32.960Z,100553.31
2022-08-16T02:11:58.554Z,100556.66
2022-08-16T02:15:25.261Z,100551.63
2022-08-16T02:18:51.030Z,100554.53
2022-08-16T02:22:34.993Z,100551.63
2022-08-16T02:25:59.921Z,100550.19
2022-08-16T02:29:22.138Z,100542.59
2022-08-16T02:32:53.618Z,100556.25
2022-08-16T02:36:47.108Z,100559.97
2022-08-16T02:40:02.813Z,100563.72
2022-08-16T02:43:26.721Z,100566.41
2022-08-16T02:46:53.906Z,100559.97
2022-08-16T02:50:53.623Z,100562.13
2022-08-16T02:54:00.486Z,100568.34
2022-08-16T02:57:23.221Z,100558.78
2022-08-16T03:00:45.603Z,100559.63
2022-08-16T03:04:39.168Z,100565.03
2022-08-16T03:07:54.101Z,100568.75
2022-08-16T03:11:21.658Z,100576.38
2022-08-16T03:14:44.742Z,100572.84
2022-08-16T03:18:12.541Z,100570.34
2022-08-16T03:21:41.263Z,100557.03
2022-08-16T03:25:09.287Z,100557.84
2022-08-16T03:28:33.715Z,100561.97
2022-08-16T03:31:56.199Z,100560.06
2022-08-16T03:35:32.674Z,100549.09
2022-08-16T03:38:57.962Z,100550.75
2022-08-16T03:42:23.075Z,100546.38
2022-08-16T03:45:46.541Z,100542.84
2022-08-16T03:49:12.271Z,100554.03
2022-08-16T03:52:36.315Z,100556.09
2022-08-16T03:55:58.682Z,100566.06
2022-08-16T03:59:20.622Z,100563.75
2022-08-16T04:02:46.747Z,100572.88
2022-08-16T04:06:12.522Z,100573.50
2022-08-16T04:09:37.882Z,100573.66
2022-08-16T04:13:04.290Z,100583.19
2022-08-16T04:16:28.344Z,100585.25
2022-08-16T04:20:23.683Z,100583.78
2022-08-16T04:23:51.830Z,100592.09
2022-08-16T04:27:18.146Z,100588.75
2022-08-16T04:30:39.958Z,100587.06
2022-08-16T04:34:03.218Z,100595.34
2022-08-16T04:37:27.817Z,100593.50
2022-08-16T04:41:01.167Z,100609.06
2022-08-16T04:44:53.167Z,100616.78
2022-08-16T04:48:06.808Z,100629.91
2022-08-16T04:51:37.530Z,100628.00
2022-08-16T04:55:03.371Z,100631.38
2022-08-16T04:58:46.051Z,100625.78
2022-08-16T05:02:41.141Z,100623.06
2022-08-16T05:05:59.301Z,100625.78
2022-08-16T05:09:28.499Z,100622.03
2022-08-16T05:12:53.636Z,100628.47
2022-08-16T05:16:21.780Z,100634.13
2022-08-16T05:19:57.508Z,100632.06
2022-08-16T05:23:27.418Z,100627.31
2022-08-16T05:26:55.338Z,100625.88
2022-08-16T05:30:34.401Z,100630.53
2022-08-16T05:34:03.638Z,100636.38
2022-08-16T05:37:28.771Z,100632.72
2022-08-16T05:41:05.254Z,100633.13
2022-08-16T05:44:34.439Z,100629.88
2022-08-16T05:47:59.531Z,100633.72
2022-08-16T05:51:38.527Z,100641.47
2022-08-16T05:55:03.046Z,100633.22
2022-08-16T05:58:33.217Z,100637.84
2022-08-16T06:01:57.008Z,100635.16
2022-08-16T06:05:26.558Z,100638.75
2022-08-16T06:08:50.199Z,100637.75
2022-08-16T06:12:27.303Z,100642.38
2022-08-16T06:15:54.377Z,100638.84
2022-08-16T06:19:16.314Z,100642.44
2022-08-16T06:22:58.671Z,100655.81
2022-08-16T06:26:36.533Z,100651.72
2022-08-16T06:29:59.386Z,100649.88
2022-08-16T06:33:22.111Z,100649.06
2022-08-16T06:36:45.682Z,100658.03
2022-08-16T06:40:16.200Z,100673.06
2022-08-16T06:43:45.049Z,100672.28
2022-08-16T06:47:12.982Z,100672.25
2022-08-16T06:50:40.125Z,100677.09
2022-08-16T06:54:05.071Z,100673.56
2022-08-16T06:57:29.138Z,100680.22
2022-08-16T07:00:51.455Z,100686.28
2022-08-16T07:04:31.852Z,100688.41
2022-08-16T07:08:04.276Z,100688.84
2022-08-16T07:11:48.272Z,100689.91
2022-08-16T07:15:17.049Z,100698.69
2022-08-16T07:18:58.871Z,100697.03
2022-08-16T07:22:37.643Z,100700.97
2022-08-16T07:26:09.020Z,100695.34
2022-08-16T07:29:32.130Z,100703.50
2022-08-16T07:32:57.281Z,100706.59
2022-08-16T07:36:22.101Z,100698.03
2022-08-16T07:39:45.217Z,100707.22
2022-08-16T07:43:08.594Z,100694.28
2022-08-16T07:46:37.641Z,100703.22
2022-08-16T07:50:09.000Z,100698.41
2022-08-16T07:54:09.287Z,100698.19
2022-08-16T07:57:44.305Z,100691.88
2022-08-16T08:01:17.203Z,100694.38
2022-08-16T08:04:45.351Z,100703.13
2022-08-16T08:08:11.777Z,100700.56
2022-08-16T08:12:00.986Z,100703.88
2022-08-16T08:15:35.363Z,100715.13
2022-08-16T08:19:02.838Z,100713.00
2022-08-16T08:22:25.710Z,100721.72
2022-08-16T08:25:54.279Z,100715.81
2022-08-16T08:29:22.508Z,100726.00
2022-08-16T08:32:56.967Z,100723.22
2022-08-16T08:36:34.330Z,100718.16
2022-08-16T08:40:13.196Z,100723.31
2022-08-16T08:43:41.820Z,100720.34
2022-08-16T08:47:09.257Z,100722.34
2022-08-16T08:50:34.114Z,100724.16
2022-08-16T08:53:58.467Z,100723.31
2022-08-16T08:57:23.851Z,100722.16
2022-08-16T09:01:11.458Z,100724.38
2022-08-16T09:04:33.435Z,100713.91
2022-08-16T09:08:02.022Z,100718.81
2022-08-16T09:11:53.730Z,100712.91
2022-08-16T09:15:32.464Z,100711.97
2022-08-16T09:19:00.805Z,100717.34
2022-08-16T09:22:28.059Z,100723.53
2022-08-16T09:25:51.162Z,100718.84
2022-08-16T09:29:16.744Z,100718.38
2022-08-16T09:32:46.976Z,100717.31
2022-08-16T09:36:12.020Z,100726.63
2022-08-16T09:39:53.037Z,100717.91
2022-08-16T09:43:56.735Z,100712.28
2022-08-16T09:46:59.850Z,100716.38
2022-08-16T09:50:25.245Z,100719.00
2022-08-16T09:53:53.683Z,100717.25
2022-08-16T09:57:15.841Z,100725.59
2022-08-16T10:00:42.399Z,100718.50
2022-08-16T10:04:29.688Z,100722.56
2022-08-16T10:07:56.766Z,100718.19
2022-08-16T10:11:50.221Z,100718.91
2022-08-16T10:15:15.900Z,100725.94
2022-08-16T10:18:56.858Z,100722.47
2022-08-16T10:22:23.043Z,100720.88
2022-08-16T10:27:16.796Z,100724.44
2022-08-16T10:30:00.161Z,100730.03
2022-08-16T10:33:13.554Z,100723.59
2022-08-16T10:36:39.899Z,100723.72
2022-08-16T10:40:02.064Z,100715.03
2022-08-16T10:43:23.649Z,100724.31
2022-08-16T10:46:47.106Z,100716.81
2022-08-16T10:50:12.846Z,100722.75
2022-08-16T10:53:41.693Z,100715.38
2022-08-16T10:57:07.266Z,100721.19
2022-08-16T11:00:34.874Z,100714.75
2022-08-16T11:03:58.512Z,100711.63
2022-08-16T11:11:06.851Z,100709.91
2022-08-16T11:14:33.973Z,100704.84
2022-08-16T11:22:39.635Z,100712.22
2022-08-16T11:29:15.062Z,100727.47
2022-08-16T11:32:37.854Z,100727.31
2022-08-16T11:39:43.504Z,100733.38
2022-08-16T11:43:06.392Z,100730.78
2022-08-16T11:46:46.501Z,100723.72
2022-08-16T11:50:10.074Z,100726.69
2022-08-16T11:53:35.976Z,100722.31
2022-08-16T11:57:00.973Z,100723.38
2022-08-16T12:00:33.866Z,100726.19
2022-08-16T12:04:05.403Z,100721.75
2022-08-16T12:07:26.931Z,100721.53
2022-08-16T12:10:50.347Z,100724.06
2022-08-16T12:14:13.387Z,100727.25
2022-08-16T12:17:36.202Z,100722.94
2022-08-16T12:20:58.677Z,100720.84
2022-08-16T12:24:21.876Z,100720.63
2022-08-16T12:27:49.732Z,100734.72
2022-08-16T12:31:13.303Z,100731.50
2022-08-16T12:34:36.842Z,100729.44
2022-08-16T12:38:00.448Z,100732.69
2022-08-16T12:41:34.945Z,100726.13
2022-08-16T12:44:56.372Z,100723.38
2022-08-16T12:48:44.246Z,100720.72
2022-08-16T12:52:05.951Z,100723.63
2022-08-16T12:55:33.520Z,100726.25
2022-08-16T12:59:09.330Z,100720.69
2022-08-16T13:02:36.234Z,100719.44
2022-08-16T13:05:59.729Z,100713.38
2022-08-16T13:09:26.174Z,100712.59
2022-08-16T13:12:53.122Z,100711.78
2022-08-16T13:16:20.764Z,100711.56
2022-08-16T13:23:29.979Z,100711.88
2022-08-16T13:26:53.183Z,100711.75
2022-08-16T13:30:36.187Z,100715.63
2022-08-16T13:33:58.527Z,100709.69
2022-08-16T13:37:20.776Z,100702.91
2022-08-16T13:40:45.166Z,100705.38
2022-08-16T13:44:09.385Z,100707.56
2022-08-16T13:47:31.257Z,100705.53
2022-08-16T13:50:54.004Z,100710.03
2022-08-16T13:58:34.289Z,100697.47
2022-08-16T14:01:26.287Z,100700.22
2022-08-16T14:05:05.339Z,100698.59
2022-08-16T14:08:27.610Z,100703.31
2022-08-16T14:11:53.661Z,100695.47
2022-08-16T14:15:17.460Z,100692.53
2022-08-16T14:18:39.239Z,100701.38
2022-08-16T14:22:14.739Z,100704.50
2022-08-16T14:25:37.285Z,100702.09
2022-08-16T14:29:03.490Z,100704.84
2022-08-16T14:32:34.026Z,100710.63
2022-08-16T14:35:56.440Z,100708.63
2022-08-16T14:39:18.301Z,100709.91
2022-08-16T14:42:40.468Z,100711.09
2022-08-16T14:46:07.617Z,100705.38
2022-08-16T14:49:31.569Z,100714.72
2022-08-16T14:52:59.269Z,100710.78
2022-08-16T14:56:42.455Z,100708.34
2022-08-16T15:00:06.052Z,100712.22
2022-08-16T15:03:28.660Z,100711.91
2022-08-16T15:06:55.963Z,100708.28
2022-08-16T15:10:24.029Z,100706.13
2022-08-16T15:13:45.927Z,100716.41
2022-08-16T15:17:09.950Z,100711.03
2022-08-16T15:20:35.205Z,100712.84
2022-08-16T15:23:59.973Z,100716.03
2022-08-16T15:27:22.191Z,100710.78
2022-08-16T15:30:56.739Z,100707.81
2022-08-16T15:34:26.356Z,100707.13
2022-08-16T15:37:48.391Z,100700.53
2022-08-16T15:41:47.720Z,100706.63
2022-08-16T15:45:11.225Z,100706.31
2022-08-16T15:48:34.449Z,100710.09
2022-08-16T15:52:03.042Z,100717.50
2022-08-16T15:55:35.150Z,100720.72
2022-08-16T15:58:58.658Z,100712.94
2022-08-16T16:02:29.280Z,100711.16
2022-08-16T16:05:55.754Z,100717.38
2022-08-16T16:09:18.488Z,100712.31
2022-08-16T16:12:53.938Z,100712.00
2022-08-16T16:16:19.783Z,100716.25
2022-08-16T16:19:42.551Z,100717.44
2022-08-16T16:23:10.207Z,100717.91
2022-08-16T16:26:32.613Z,100713.81
2022-08-16T16:30:01.693Z,100705.22
2022-08-16T16:33:27.795Z,100725.66
2022-08-16T16:36:49.495Z,100718.94
2022-08-16T16:40:13.376Z,100716.13
2022-08-16T16:43:46.368Z,100721.06
2022-08-16T16:47:11.993Z,100732.91
2022-08-16T16:50:35.546Z,100736.59
2022-08-16T16:54:00.451Z,100731.78
2022-08-16T16:57:36.306Z,100736.94
2022-08-16T17:01:04.928Z,100747.34
2022-08-16T17:04:32.329Z,100752.19
2022-08-16T17:07:56.494Z,100761.09
2022-08-16T17:11:18.170Z,100752.34
2022-08-16T17:14:42.808Z,100759.50
2022-08-16T17:18:04.933Z,100761.72
2022-08-16T17:21:46.542Z,100763.56
2022-08-16T17:25:11.906Z,100772.88
2022-08-16T17:28:58.685Z,100785.13
2022-08-16T17:38:48.714Z,100789.00
2022-08-16T17:42:16.470Z,100782.22
2022-08-16T17:45:39.300Z,100784.75
2022-08-16T17:49:01.408Z,100787.28
2022-08-16T17:52:23.272Z,100789.84
2022-08-16T17:55:50.372Z,100799.22
2022-08-16T17:59:12.103Z,100798.75
2022-08-16T18:02:44.114Z,100795.25
2022-08-16T18:06:10.798Z,100803.53
2022-08-16T18:09:32.669Z,100801.03
2022-08-16T18:12:57.589Z,100807.63
2022-08-16T18:16:20.675Z,100804.03
2022-08-16T18:19:42.687Z,100808.88
2022-08-16T18:23:06.423Z,100818.97
2022-08-16T18:26:28.583Z,100812.97
2022-08-16T18:29:52.210Z,100816.97
2022-08-16T18:33:14.435Z,100822.34
2022-08-16T18:36:37.173Z,100825.84
2022-08-16T18:39:58.839Z,100836.41
2022-08-16T18:44:22.481Z,100839.88
2022-08-16T18:47:06.963Z,100849.84
2022-08-16T18:50:29.251Z,100848.16
2022-08-16T18:54:12.442Z,100852.75
2022-08-16T18:57:34.362Z,100852.13
2022-08-16T19:00:57.406Z,100855.22
2022-08-16T19:04:48.030Z,100857.06
2022-08-16T19:08:02.657Z,100862.25
2022-08-16T19:11:28.264Z,100866.19
2022-08-16T19:14:50.259Z,100863.41
2022-08-16T19:18:13.332Z,100862.53
2022-08-16T19:21:36.634Z,100875.50
2022-08-16T19:24:58.863Z,100869.94
2022-08-16T19:28:57.815Z,100887.03
2022-08-16T19:32:17.002Z,100884.47
2022-08-16T19:35:39.657Z,100886.88
2022-08-16T19:39:06.077Z,100884.19
2022-08-16T19:42:29.461Z,100883.19
2022-08-16T19:45:53.976Z,100883.69
2022-08-16T19:49:16.759Z,100886.66
2022-08-16T19:52:38.927Z,100890.94
2022-08-16T19:56:02.233Z,100889.56
2022-08-16T19:59:40.407Z,100889.84
2022-08-16T20:03:03.014Z,100900.41
2022-08-16T20:06:37.535Z,100894.16
2022-08-16T20:10:00.147Z,100902.34
2022-08-16T20:13:24.954Z,100902.63
2022-08-16T20:16:47.862Z,100899.28
2022-08-16T20:20:11.135Z,100911.47
2022-08-16T20:23:37.941Z,100898.09
2022-08-16T20:27:00.438Z,100899.78
2022-08-16T20:30:23.697Z,100902.53
2022-08-16T20:33:45.307Z,100903.19
2022-08-16T20:37:12.480Z,100908.00
2022-08-16T20:40:35.702Z,100907.81
2022-08-16T20:43:57.714Z,100914.13
2022-08-16T20:47:25.015Z,100912.25
2022-08-16T20:50:46.767Z,100914.75
2022-08-16T20:54:08.819Z,100918.72
2022-08-16T20:57:30.989Z,100921.44
2022-08-16T21:00:53.197Z,100920.81
2022-08-16T21:04:16.571Z,100914.56
2022-08-16T21:07:39.054Z,100916.63
2022-08-16T21:11:03.209Z,100916.44
2022-08-16T21:14:25.989Z,100921.22
2022-08-16T21:17:47.943Z,100921.00
2022-08-16T21:21:12.109Z,100914.53
2022-08-16T21:24:33.870Z,100917.00
2022-08-16T21:28:40.335Z,100916.38
2022-08-16T21:31:38.361Z,100916.53
2022-08-16T21:35:00.095Z,100914.88
2022-08-16T21:38:28.856Z,100919.03
2022-08-16T21:41:52.310Z,100927.31
2022-08-16T21:45:15.331Z,100927.31
2022-08-16T21:48:40.691Z,100928.13
2022-08-16T21:52:02.762Z,100925.16
2022-08-16T21:55:26.434Z,100923.72
2022-08-16T21:58:53.065Z,100926.84
2022-08-16T22:02:17.839Z,100931.81
2022-08-16T22:05:42.160Z,100918.03
2022-08-16T22:09:04.468Z,100932.41
2022-08-16T22:12:29.309Z,100927.78
2022-08-16T22:15:51.969Z,100930.03
2022-08-16T22:19:13.658Z,100931.84
2022-08-16T22:22:36.025Z,100941.59
2022-08-16T22:25:57.680Z,100943.25
2022-08-16T22:29:20.982Z,100946.72
2022-08-16T22:32:45.492Z,100949.41
2022-08-16T22:36:07.806Z,100948.97
2022-08-16T22:39:29.691Z,100952.91
2022-08-16T22:42:54.371Z,100953.09
2022-08-16T22:46:19.465Z,100958.28
2022-08-16T22:49:41.639Z,100957.81
2022-08-16T22:53:04.606Z,100962.81
2022-08-16T22:56:26.586Z,100967.75
2022-08-16T22:59:48.549Z,100966.31
2022-08-16T23:03:18.103Z,100965.84
2022-08-16T23:06:39.752Z,100966.63
2022-08-16T23:10:01.593Z,100969.09
2022-08-16T23:13:26.204Z,100970.50
2022-08-16T23:16:48.146Z,100973.59
2022-08-16T23:20:12.259Z,100973.97
2022-08-16T23:23:33.858Z,100969.75
2022-08-16T23:26:55.839Z,100963.06
2022-08-16T23:30:19.507Z,100960.94
2022-08-16T23:33:41.706Z,100944.63
2022-08-16T23:37:04.774Z,100950.81
2022-08-16T23:40:26.607Z,100949.34
2022-08-16T23:43:48.235Z,100952.44
2022-08-16T23:47:10.874Z,100944.22
2022-08-16T23:50:33.746Z,100951.69
2022-08-16T23:53:57.070Z,100950.41
2022-08-16T23:57:18.801Z,100950.59
